M I D A S
Marine Information and Data Acquisition System
Tripno 1674 of the Zeeleeuw from 2009-04-09 07:16:14 to 2009-04-09 14:23:04
Back to CruiseResearch ActivitiesStationsMapUnderway DataData graphs

EquipmentUnitsComment
TimeDGPSUTC
LatitudeDGPSDM.mWGS84
LongitudeDGPSDM.mWGS84
HeadingGyrodeg 
SOGDGPSknotsSpeed over ground
COGDGPSdegCourse over ground
DepthEcho soundermeters200 kHz
Missing or incorrect values are displayed as -999
Navigation data collected by the RV Zeeleeuw from 2009-04-09 07:33:28 to 2009-04-09 14:35:49
                                                                                    Next 1000 lines
Time Latitude Longitude Heading SOG COG Depth
2009-04-09 07:33:39 51°13.663 2°55.956 114.2 0.8 293 4.6
2009-04-09 07:33:43 51°13.663 2°55.955 114.2 1.2 300 4.6
2009-04-09 07:33:49 51°13.665 2°55.951 114.3 1.5 296 4.6
2009-04-09 07:33:54 51°13.666 2°55.947 114.3 1.9 296 4.8
2009-04-09 07:33:59 51°13.667 2°55.943 114.3 2.1 297 -999
2009-04-09 07:34:05 51°13.669 2°55.938 114.3 2.4 296 -999
2009-04-09 07:34:10 51°13.67 2°55.933 114.3 2.6 297 -999
2009-04-09 07:34:16 51°13.672 2°55.926 114.1 2.7 296 -999
2009-04-09 07:34:22 51°13.674 2°55.919 113.9 2.9 297 -999
2009-04-09 07:34:27 51°13.676 2°55.913 113.3 3.1 296 -999
2009-04-09 07:34:32 51°13.678 2°55.907 112.5 3.2 296 -999
2009-04-09 07:34:37 51°13.68 2°55.9 111.8 3.3 294 -999
2009-04-09 07:34:42 51°13.682 2°55.893 110.8 3.4 293 -999
2009-04-09 07:34:47 51°13.684 2°55.887 109.5 3.4 291 -999
2009-04-09 07:34:52 51°13.685 2°55.88 107.9 3.4 290 -999
2009-04-09 07:34:57 51°13.687 2°55.872 106 3.5 288 -999
2009-04-09 07:35:02 51°13.688 2°55.865 103.7 3.5 285 -999
2009-04-09 07:35:07 51°13.689 2°55.857 101 3.5 283 -999
2009-04-09 07:35:12 51°13.69 2°55.85 98.5 3.7 280 -999
2009-04-09 07:35:17 51°13.691 2°55.841 96.6 3.7 278 -999
2009-04-09 07:35:22 51°13.691 2°55.833 95.1 3.6 275 -999
2009-04-09 07:35:27 51°13.692 2°55.826 93.3 3.6 274 -999
2009-04-09 07:35:32 51°13.692 2°55.818 91.7 3.5 272 -999
2009-04-09 07:35:37 51°13.692 2°55.81 90.4 3.5 272 -999
2009-04-09 07:35:42 51°13.692 2°55.802 89.4 3.4 270 -999
2009-04-09 07:35:47 51°13.692 2°55.795 88.3 3.4 270 -999
2009-04-09 07:35:52 51°13.692 2°55.787 87.3 3.3 268 -999
2009-04-09 07:35:57 51°13.692 2°55.78 86.4 3.2 268 -999
2009-04-09 07:36:02 51°13.692 2°55.773 85.1 3 268 -999
2009-04-09 07:36:07 51°13.692 2°55.767 84.1 2.9 266 -999
2009-04-09 07:36:12 51°13.692 2°55.761 83.3 2.7 268 10.7
2009-04-09 07:36:17 51°13.691 2°55.756 82.4 2.4 266 4.6
2009-04-09 07:36:22 51°13.691 2°55.751 81.6 1.9 269 11.2
2009-04-09 07:36:27 51°13.691 2°55.748 80.3 1.6 264 10.9
2009-04-09 07:36:31 51°13.691 2°55.745 78.5 1.4 271 11.2
2009-04-09 07:36:36 51°13.691 2°55.743 75.1 1 266 11.3
2009-04-09 07:36:41 51°13.691 2°55.741 71.7 0.8 279 11.4
2009-04-09 07:36:46 51°13.691 2°55.74 67.6 0.5 302 11.4
2009-04-09 07:36:51 51°13.692 2°55.739 64.5 0.4 339 11.4
2009-04-09 07:36:56 51°13.692 2°55.74 59.3 0.7 7 11.3
2009-04-09 07:37:00 51°13.693 2°55.74 55.2 0.9 28 11.3
2009-04-09 07:37:06 51°13.695 2°55.741 48.4 1.1 20 11.5
2009-04-09 07:37:10 51°13.697 2°55.742 42.2 1.3 24 11.3
2009-04-09 07:37:15 51°13.699 2°55.743 36.3 1.5 18 11.3
2009-04-09 07:37:20 51°13.701 2°55.744 31.5 1.6 14 11.1
2009-04-09 07:37:25 51°13.703 2°55.745 25.6 1.8 10 11.1
2009-04-09 07:37:30 51°13.706 2°55.745 19.7 2 4 10.9
2009-04-09 07:37:34 51°13.708 2°55.745 12.6 2.1 -999 11.1
2009-04-09 07:37:39 51°13.711 2°55.745 8.1 2.2 356 11.1
2009-04-09 07:37:44 51°13.714 2°55.744 1.3 2.3 352 11
2009-04-09 07:37:49 51°13.718 2°55.744 357.1 2.4 348 10.7
2009-04-09 07:37:54 51°13.721 2°55.742 350.3 2.6 343 10.6
2009-04-09 07:37:59 51°13.725 2°55.74 345.8 3 340 10.6
2009-04-09 07:38:03 51°13.728 2°55.737 339.9 3.4 333 10.5
2009-04-09 07:38:09 51°13.733 2°55.732 335.8 3.7 334 10.3
2009-04-09 07:38:14 51°13.738 2°55.728 333.8 4 332 10.2
2009-04-09 07:38:18 51°13.742 2°55.724 333.2 4.2 333 10.1
2009-04-09 07:38:23 51°13.748 2°55.72 332.6 4.6 332 9.8
2009-04-09 07:38:28 51°13.754 2°55.715 332 4.9 331 9
2009-04-09 07:38:34 51°13.762 2°55.708 331.2 5.3 330 9
2009-04-09 07:38:38 51°13.767 2°55.703 330.3 5.7 329 8.9
2009-04-09 07:38:42 51°13.773 2°55.698 329.2 6 327 8.9
2009-04-09 07:38:48 51°13.781 2°55.689 328.4 6.4 326 9
2009-04-09 07:38:53 51°13.789 2°55.68 327.6 6.7 326 9
2009-04-09 07:38:58 51°13.797 2°55.672 327.5 6.9 326 9.3
2009-04-09 07:39:04 51°13.807 2°55.662 328.5 7.2 328 9.2
2009-04-09 07:39:08 51°13.815 2°55.656 329.8 7.4 329 9.3
2009-04-09 07:39:13 51°13.824 2°55.648 330.8 7.6 330 9.4
2009-04-09 07:39:18 51°13.833 2°55.639 331.6 7.9 332 9.2
2009-04-09 07:39:22 51°13.841 2°55.632 332.7 8 332 9.7
2009-04-09 07:39:28 51°13.852 2°55.622 333.7 8.2 333 9.7
2009-04-09 07:39:34 51°13.865 2°55.612 333.8 8.4 331 9.7
2009-04-09 07:39:38 51°13.873 2°55.605 333.6 8.5 332 9.8
2009-04-09 07:39:42 51°13.882 2°55.597 334.4 8.7 333 9.8
2009-04-09 07:39:48 51°13.895 2°55.586 334.7 8.8 332 9.8
2009-04-09 07:39:54 51°13.908 2°55.575 335.4 8.9 334 9.9
2009-04-09 07:39:58 51°13.916 2°55.568 336.4 9 334 9.9
2009-04-09 07:40:03 51°13.928 2°55.56 336.9 9 335 9.9
2009-04-09 07:40:08 51°13.939 2°55.55 336.4 9.2 334 9.9
2009-04-09 07:40:14 51°13.953 2°55.54 336.1 9.2 335 10
2009-04-09 07:40:18 51°13.962 2°55.533 336.5 9.3 334 9.9
2009-04-09 07:40:23 51°13.974 2°55.524 335.9 9.4 334 10
2009-04-09 07:40:28 51°13.986 2°55.515 335.9 9.4 335 9.8
2009-04-09 07:40:33 51°13.998 2°55.506 336.2 9.5 334 9.8
2009-04-09 07:40:38 51°14.01 2°55.497 336.9 9.5 336 9.4
2009-04-09 07:40:43 51°14.022 2°55.488 337.1 9.6 335 9.4
2009-04-09 07:40:47 51°14.031 2°55.481 336.1 9.6 334 9.6
2009-04-09 07:40:54 51°14.048 2°55.468 336.1 9.7 335 9.7
2009-04-09 07:40:58 51°14.058 2°55.46 336.2 9.7 333 9.6
2009-04-09 07:41:03 51°14.07 2°55.451 336.1 9.8 335 9.6
2009-04-09 07:41:08 51°14.083 2°55.442 335.5 9.8 332 9.6
2009-04-09 07:41:14 51°14.097 2°55.43 335.3 9.9 334 9.5
2009-04-09 07:41:18 51°14.107 2°55.422 336 9.9 334 9.3
2009-04-09 07:41:23 51°14.12 2°55.412 335.2 9.9 332 9.6
2009-04-09 07:41:29 51°14.134 2°55.399 334.4 9.9 332 -999
2009-04-09 07:41:34 51°14.146 2°55.389 334.3 9.9 332 9.6
2009-04-09 07:41:39 51°14.158 2°55.378 332.8 9.9 329 9.6
2009-04-09 07:41:45 51°14.172 2°55.364 331.2 9.8 328 9.8
2009-04-09 07:41:50 51°14.183 2°55.352 329.9 9.8 327 9.8
2009-04-09 07:41:54 51°14.192 2°55.343 329.4 9.7 326 9.7
2009-04-09 07:41:59 51°14.203 2°55.331 328.6 9.7 324 9.7
2009-04-09 07:42:04 51°14.214 2°55.317 326.4 9.7 322 9.8
2009-04-09 07:42:09 51°14.225 2°55.305 325.1 9.7 322 9.8
2009-04-09 07:42:14 51°14.235 2°55.292 323.8 9.7 320 9.8
2009-04-09 07:42:19 51°14.245 2°55.277 322.3 9.7 319 -999
2009-04-09 07:42:24 51°14.255 2°55.263 320.4 9.7 317 9.7
2009-04-09 07:42:29 51°14.265 2°55.248 318.4 9.7 315 -999
2009-04-09 07:42:35 51°14.277 2°55.23 317.7 9.8 316 9.8
2009-04-09 07:42:39 51°14.284 2°55.217 316.9 9.9 314 10
2009-04-09 07:42:44 51°14.294 2°55.201 315.7 10 313 9.7
2009-04-09 07:42:49 51°14.303 2°55.185 314.5 10 314 9.7
2009-04-09 07:42:54 51°14.313 2°55.17 315.1 10 315 9.9
2009-04-09 07:42:59 51°14.323 2°55.154 315.9 10.1 314 10.2
2009-04-09 07:43:03 51°14.331 2°55.141 316.1 10.2 315 9.8
2009-04-09 07:43:08 51°14.341 2°55.125 316.4 10.3 315 9.9
2009-04-09 07:43:14 51°14.353 2°55.106 316.3 10.4 314 10
2009-04-09 07:43:18 51°14.361 2°55.092 316.2 10.5 315 9.9
2009-04-09 07:43:24 51°14.374 2°55.073 316.8 10.7 316 9.9
2009-04-09 07:43:28 51°14.382 2°55.059 316.7 10.9 315 9.8
2009-04-09 07:43:33 51°14.393 2°55.042 317.8 11 317 9.8
2009-04-09 07:43:38 51°14.405 2°55.026 319.1 11.2 315 9.7
2009-04-09 07:43:44 51°14.418 2°55.004 319.1 11.3 314 9.5
2009-04-09 07:43:48 51°14.427 2°54.99 318.4 11.5 313 9.5
2009-04-09 07:43:54 51°14.44 2°54.967 318 11.6 313 9.4
2009-04-09 07:43:58 51°14.448 2°54.952 317.7 11.7 313 9.6
2009-04-09 07:44:02 51°14.457 2°54.936 317.7 11.8 313 9.5
2009-04-09 07:44:09 51°14.473 2°54.91 317.7 11.9 313 9.5
2009-04-09 07:44:14 51°14.484 2°54.89 317.3 12 312 9.4
2009-04-09 07:44:18 51°14.493 2°54.874 316.3 12.1 310 9.3
2009-04-09 07:44:23 51°14.504 2°54.853 315 12.1 310 9.3
2009-04-09 07:44:28 51°14.514 2°54.833 314.8 12.2 311 9.2
2009-04-09 07:44:34 51°14.528 2°54.808 315.8 12.2 311 9.2
2009-04-09 07:44:38 51°14.537 2°54.792 316.5 12.3 311 9.2
2009-04-09 07:44:43 51°14.548 2°54.771 317 12.2 311 9.2
2009-04-09 07:44:48 51°14.559 2°54.751 317.6 12.2 311 9.1
2009-04-09 07:44:54 51°14.572 2°54.726 317.7 12.2 310 9
2009-04-09 07:44:58 51°14.581 2°54.71 317.6 12.2 311 9
2009-04-09 07:45:03 51°14.592 2°54.69 317.5 12.2 311 9
2009-04-09 07:45:07 51°14.601 2°54.673 317.5 12.2 310 8.9
2009-04-09 07:45:14 51°14.616 2°54.645 317.9 12.2 311 9
2009-04-09 07:45:18 51°14.625 2°54.627 317 12.3 309 8.9
2009-04-09 07:45:23 51°14.635 2°54.607 316.6 12.2 311 9
2009-04-09 07:45:29 51°14.648 2°54.582 316.2 12.3 308 9
2009-04-09 07:45:34 51°14.659 2°54.561 315.6 12.2 310 9.1
2009-04-09 07:45:38 51°14.667 2°54.544 315.1 12.3 308 9.1
2009-04-09 07:45:43 51°14.678 2°54.522 314.6 12.3 309 9.1
2009-04-09 07:45:48 51°14.689 2°54.502 314.4 12.3 309 9.2
2009-04-09 07:45:54 51°14.702 2°54.476 314.6 12.3 309 9.3
2009-04-09 07:45:58 51°14.71 2°54.459 314.6 12.3 308 9.1
2009-04-09 07:46:03 51°14.72 2°54.437 314.1 12.2 307 9.2
2009-04-09 07:46:09 51°14.733 2°54.412 314 12.2 307 9
2009-04-09 07:46:14 51°14.742 2°54.388 311.2 12.3 302 9
2009-04-09 07:46:18 51°14.75 2°54.371 309.8 12.3 304 9.3
2009-04-09 07:46:23 51°14.758 2°54.347 308.4 12.2 299 9.4
2009-04-09 07:46:29 51°14.768 2°54.318 306.1 12.3 298 9.4
2009-04-09 07:46:34 51°14.774 2°54.293 301.8 12.4 292 9.5
2009-04-09 07:46:38 51°14.779 2°54.273 299.1 12.4 293 9.6
2009-04-09 07:46:43 51°14.785 2°54.247 297 12.4 288 8.9
2009-04-09 07:46:48 51°14.79 2°54.221 294.8 12.4 289 9.3
2009-04-09 07:46:54 51°14.796 2°54.189 293.2 12.4 286 9.3
2009-04-09 07:46:58 51°14.8 2°54.168 291.7 12.4 286 9.2
2009-04-09 07:47:03 51°14.805 2°54.141 290.6 12.5 285 8.9
2009-04-09 07:47:08 51°14.809 2°54.114 289.4 12.5 284 8.8
2009-04-09 07:47:14 51°14.814 2°54.082 288.6 12.4 283 8.7
2009-04-09 07:47:18 51°14.817 2°54.061 287.8 12.5 282 8.6
2009-04-09 07:47:22 51°14.819 2°54.039 287 12.5 281 8.7
2009-04-09 07:47:28 51°14.824 2°54.006 286.8 12.5 282 8.6
2009-04-09 07:47:33 51°14.827 2°53.979 286.6 12.6 282 8.6
2009-04-09 07:47:38 51°14.831 2°53.952 286.6 12.5 282 8.6
2009-04-09 07:47:43 51°14.834 2°53.925 286.7 12.6 282 8.7
2009-04-09 07:47:48 51°14.838 2°53.898 286.2 12.6 281 8.7
2009-04-09 07:47:53 51°14.841 2°53.87 286.1 12.6 281 8.7
2009-04-09 07:47:58 51°14.844 2°53.843 285.9 12.6 281 8.8
2009-04-09 07:48:03 51°14.848 2°53.815 285.9 12.6 281 8.9
2009-04-09 07:48:08 51°14.851 2°53.787 285.5 12.7 280 8.9
2009-04-09 07:48:13 51°14.854 2°53.76 285.1 12.7 281 8.8
2009-04-09 07:48:18 51°14.857 2°53.732 284.7 12.7 280 9
2009-04-09 07:48:23 51°14.86 2°53.705 285.7 12.6 283 9
2009-04-09 07:48:28 51°14.864 2°53.678 287 12.6 282 9
2009-04-09 07:48:33 51°14.868 2°53.651 287.6 12.6 283 9
2009-04-09 07:48:38 51°14.872 2°53.624 288.5 12.6 284 9.1
2009-04-09 07:48:43 51°14.877 2°53.597 289 12.6 284 9.1
2009-04-09 07:48:47 51°14.88 2°53.575 290.1 12.6 286 9.1
2009-04-09 07:48:54 51°14.888 2°53.538 292 12.5 288 9.1
2009-04-09 07:48:58 51°14.892 2°53.517 293.1 12.5 288 9.1
2009-04-09 07:49:03 51°14.898 2°53.491 294.4 12.5 290 9.2
2009-04-09 07:49:08 51°14.903 2°53.465 295.3 12.5 289 9.2
2009-04-09 07:49:14 51°14.911 2°53.434 296 12.5 291 9.2
2009-04-09 07:49:18 51°14.916 2°53.413 296.5 12.5 290 9.1
2009-04-09 07:49:23 51°14.922 2°53.388 297.4 12.5 293 9.1
2009-04-09 07:49:28 51°14.929 2°53.362 297.8 12.5 292 9.1
2009-04-09 07:49:34 51°14.937 2°53.332 298.5 12.4 293 9.2
2009-04-09 07:49:38 51°14.942 2°53.312 298.6 12.5 292 9.3
2009-04-09 07:49:42 51°14.947 2°53.291 298.4 12.4 292 9.2
2009-04-09 07:49:48 51°14.955 2°53.261 298.7 12.5 292 9.3
2009-04-09 07:49:53 51°14.962 2°53.235 299.1 12.5 293 9.3
2009-04-09 07:49:58 51°14.968 2°53.21 299.4 12.5 293 9.3
2009-04-09 07:50:02 51°14.974 2°53.189 299.5 12.5 293 9.3
2009-04-09 07:50:08 51°14.982 2°53.159 299.2 12.5 292 9.3
2009-04-09 07:50:13 51°14.988 2°53.133 299.1 12.5 293 9.3
2009-04-09 07:50:18 51°14.995 2°53.108 299.1 12.5 293 9.3
2009-04-09 07:50:22 51°15 2°53.088 299.2 12.4 294 9.3
2009-04-09 07:50:28 51°15.009 2°53.058 299.8 12.4 293 9.4
2009-04-09 07:50:33 51°15.015 2°53.032 299.8 12.4 293 9.4
2009-04-09 07:50:38 51°15.022 2°53.007 299.7 12.4 293 9.4
2009-04-09 07:50:42 51°15.028 2°52.987 299.7 12.4 294 9.4
2009-04-09 07:50:48 51°15.036 2°52.957 299.7 12.4 293 9.4
2009-04-09 07:50:53 51°15.043 2°52.931 299.6 12.5 294 9.5
2009-04-09 07:50:58 51°15.05 2°52.906 299.8 12.4 293 9.5
2009-04-09 07:51:02 51°15.055 2°52.886 299.8 12.4 293 9.5
2009-04-09 07:51:08 51°15.063 2°52.856 299.7 12.5 293 9.6
2009-04-09 07:51:13 51°15.07 2°52.83 299.7 12.5 294 9.7
2009-04-09 07:51:18 51°15.077 2°52.805 300 12.5 294 9.7
2009-04-09 07:51:22 51°15.083 2°52.785 300 12.4 293 9.8
2009-04-09 07:51:28 51°15.091 2°52.755 300 12.5 294 9.8
2009-04-09 07:51:33 51°15.098 2°52.73 299.9 12.4 293 9.8
2009-04-09 07:51:38 51°15.105 2°52.704 299.8 12.5 293 9.8
2009-04-09 07:51:43 51°15.111 2°52.679 299.8 12.5 292 9.8
2009-04-09 07:51:48 51°15.118 2°52.653 299.4 12.5 293 9.8
2009-04-09 07:51:54 51°15.126 2°52.623 299.8 12.5 294 9.9
2009-04-09 07:51:58 51°15.132 2°52.603 300.7 12.5 295 9.9
2009-04-09 07:52:03 51°15.14 2°52.578 301.6 12.4 296 9.9
2009-04-09 07:52:08 51°15.147 2°52.553 302 12.5 295 9.9
2009-04-09 07:52:13 51°15.155 2°52.528 301.9 12.5 296 10
2009-04-09 07:52:18 51°15.162 2°52.504 302.3 12.5 296 9.9
2009-04-09 07:52:23 51°15.17 2°52.479 302.6 12.5 296 10
2009-04-09 07:52:27 51°15.176 2°52.459 302.7 12.5 297 10
2009-04-09 07:52:33 51°15.185 2°52.429 303.1 12.5 296 10.1
2009-04-09 07:52:38 51°15.193 2°52.404 303.1 12.5 296 10.1
2009-04-09 07:52:43 51°15.201 2°52.379 302.9 12.6 296 10.1
2009-04-09 07:52:47 51°15.207 2°52.359 302.8 12.5 296 10.2
2009-04-09 07:52:53 51°15.216 2°52.329 302.7 12.6 296 10.2
2009-04-09 07:52:58 51°15.224 2°52.304 302.5 12.6 295 10.3
2009-04-09 07:53:03 51°15.231 2°52.279 302.4 12.6 296 10.3
2009-04-09 07:53:08 51°15.239 2°52.254 302.7 12.6 295 10.5
2009-04-09 07:53:14 51°15.248 2°52.224 302.1 12.6 295 10.5
2009-04-09 07:53:18 51°15.254 2°52.204 302.2 12.6 296 10.5
2009-04-09 07:53:23 51°15.261 2°52.178 302.3 12.6 295 10.5
2009-04-09 07:53:28 51°15.269 2°52.153 302.3 12.6 296 10.6
2009-04-09 07:53:34 51°15.277 2°52.123 302 12.7 294 10.7
2009-04-09 07:53:38 51°15.283 2°52.103 301.6 12.6 295 10.7
2009-04-09 07:53:42 51°15.289 2°52.082 301.6 12.7 294 10.8
2009-04-09 07:53:48 51°15.298 2°52.051 301.4 12.7 294 10.8
2009-04-09 07:53:54 51°15.306 2°52.021 301.5 12.7 295 10.9
2009-04-09 07:53:58 51°15.312 2°52 301.6 12.7 294 10.9
2009-04-09 07:54:02 51°15.318 2°51.98 301.3 12.7 294 11
2009-04-09 07:54:08 51°15.326 2°51.949 301.1 12.7 293 11
2009-04-09 07:54:13 51°15.333 2°51.922 300.8 12.8 292 11
2009-04-09 07:54:18 51°15.34 2°51.896 300.6 12.8 292 11.1
2009-04-09 07:54:22 51°15.345 2°51.875 300.4 12.8 292 11.1
2009-04-09 07:54:28 51°15.353 2°51.844 300.8 12.8 293 11.2
2009-04-09 07:54:33 51°15.36 2°51.818 301.2 12.8 293 11.2
2009-04-09 07:54:38 51°15.367 2°51.792 301.1 12.8 292 11.3
2009-04-09 07:54:42 51°15.372 2°51.771 300.7 12.8 293 11.3
2009-04-09 07:54:48 51°15.38 2°51.74 300.7 12.8 293 11.3
2009-04-09 07:54:53 51°15.387 2°51.714 301.3 12.7 294 11.4
2009-04-09 07:54:58 51°15.395 2°51.688 301.7 12.6 294 11.4
2009-04-09 07:55:02 51°15.401 2°51.668 302.1 12.5 295 11.4
2009-04-09 07:55:08 51°15.41 2°51.638 302.3 12.5 295 11.5
2009-04-09 07:55:13 51°15.416 2°51.613 301.3 12.5 293 11.6
2009-04-09 07:55:18 51°15.423 2°51.587 300.2 12.5 293 11.6
2009-04-09 07:55:23 51°15.43 2°51.562 299.9 12.6 294 11.6
2009-04-09 07:55:28 51°15.437 2°51.536 300 12.6 294 11.7
2009-04-09 07:55:33 51°15.444 2°51.511 300.4 12.6 294 11.7
2009-04-09 07:55:38 51°15.451 2°51.486 300.7 12.6 294 11.7
2009-04-09 07:55:43 51°15.458 2°51.46 300.6 12.6 293 11.8
2009-04-09 07:55:48 51°15.465 2°51.434 300.2 12.6 294 11.8
2009-04-09 07:55:53 51°15.472 2°51.409 300.4 12.7 294 11.8
2009-04-09 07:55:58 51°15.479 2°51.383 300.6 12.7 293 11.8
2009-04-09 07:56:03 51°15.486 2°51.357 300.5 12.7 294 11.9
2009-04-09 07:56:08 51°15.493 2°51.331 300.4 12.7 293 11.9
2009-04-09 07:56:14 51°15.501 2°51.3 300.2 12.7 293 11.9
2009-04-09 07:56:18 51°15.507 2°51.28 300.7 12.7 294 11.9
2009-04-09 07:56:23 51°15.514 2°51.254 300.7 12.7 293 11.9
2009-04-09 07:56:27 51°15.519 2°51.233 300.5 12.8 293 11.9
2009-04-09 07:56:33 51°15.528 2°51.202 300.3 12.7 294 11.9
2009-04-09 07:56:38 51°15.535 2°51.176 300.6 12.8 294 12
2009-04-09 07:56:43 51°15.542 2°51.15 300.6 12.8 293 11.9
2009-04-09 07:56:47 51°15.548 2°51.13 300.5 12.8 294 12
2009-04-09 07:56:53 51°15.556 2°51.099 301 12.8 294 12
2009-04-09 07:56:58 51°15.564 2°51.073 301.3 12.8 294 12
2009-04-09 07:57:03 51°15.57 2°51.047 300.9 12.8 293 12
2009-04-09 07:57:08 51°15.578 2°51.021 300.8 12.8 294 12
2009-04-09 07:57:13 51°15.585 2°50.996 301.1 12.8 294 12.1
2009-04-09 07:57:18 51°15.592 2°50.97 300.9 12.8 294 12.1
2009-04-09 07:57:22 51°15.597 2°50.949 300.6 12.7 292 12.1
2009-04-09 07:57:28 51°15.605 2°50.918 300.3 12.6 292 12.1
2009-04-09 07:57:34 51°15.611 2°50.885 295.2 12.8 284 12
2009-04-09 07:57:38 51°15.615 2°50.864 292.4 12.7 286 12.1
2009-04-09 07:57:42 51°15.618 2°50.842 290.5 12.7 282 12.1
2009-04-09 07:57:48 51°15.622 2°50.809 288 12.7 280 12.1
2009-04-09 07:57:54 51°15.626 2°50.776 286.4 12.7 280 12.1
2009-04-09 07:57:58 51°15.627 2°50.753 284.9 12.8 277 12.1
2009-04-09 07:58:02 51°15.63 2°50.731 283.7 12.7 278 12.1
2009-04-09 07:58:08 51°15.632 2°50.697 282.8 12.8 275 12.2
2009-04-09 07:58:13 51°15.634 2°50.669 282.3 12.8 277 12.2
2009-04-09 07:58:18 51°15.636 2°50.641 281.9 12.8 275 12.1
2009-04-09 07:58:22 51°15.637 2°50.618 281 12.8 276 12.1
2009-04-09 07:58:28 51°15.639 2°50.584 280.7 12.8 275 12.1
2009-04-09 07:58:33 51°15.641 2°50.556 280.3 12.8 275 12.1
2009-04-09 07:58:38 51°15.642 2°50.528 280.2 12.8 275 12.2
2009-04-09 07:58:42 51°15.644 2°50.505 280.2 12.8 275 12.1
2009-04-09 07:58:48 51°15.645 2°50.472 280 12.8 275 12.1
2009-04-09 07:58:53 51°15.647 2°50.443 280 12.8 275 12.2
2009-04-09 07:58:58 51°15.648 2°50.415 279.9 12.8 275 12.1
2009-04-09 07:59:02 51°15.65 2°50.393 280.1 12.8 275 12.2
2009-04-09 07:59:08 51°15.651 2°50.359 280.1 12.8 275 12.2
2009-04-09 07:59:13 51°15.653 2°50.331 279.7 12.8 274 12.2
2009-04-09 07:59:18 51°15.654 2°50.302 279.6 12.8 275 12.2
2009-04-09 07:59:23 51°15.656 2°50.274 279.4 12.8 274 12.3
2009-04-09 07:59:28 51°15.657 2°50.246 279.4 12.8 274 12.2
2009-04-09 07:59:33 51°15.658 2°50.218 279.3 12.8 274 12.2
2009-04-09 07:59:38 51°15.66 2°50.189 279.4 12.8 275 12.3
2009-04-09 07:59:43 51°15.661 2°50.161 279.5 12.8 275 12.3
2009-04-09 07:59:48 51°15.663 2°50.133 279.6 12.8 274 12.3
2009-04-09 07:59:53 51°15.664 2°50.105 279.5 12.8 275 12.3
2009-04-09 07:59:58 51°15.665 2°50.076 279.3 12.8 274 12.3
2009-04-09 08:00:03 51°15.667 2°50.048 279.3 12.8 275 12.3
2009-04-09 08:00:08 51°15.668 2°50.02 279.7 12.8 275 12.3
2009-04-09 08:00:13 51°15.67 2°49.992 279.7 12.8 275 12.3
2009-04-09 08:00:18 51°15.672 2°49.964 280.1 12.7 275 12.2
2009-04-09 08:00:23 51°15.673 2°49.936 280 12.7 275 12.2
2009-04-09 08:00:27 51°15.674 2°49.914 279.7 12.7 275 12.2
2009-04-09 08:00:33 51°15.676 2°49.88 279.5 12.7 275 12.1
2009-04-09 08:00:38 51°15.677 2°49.852 279.2 12.7 274 12.1
2009-04-09 08:00:43 51°15.679 2°49.824 279.3 12.7 275 12.1
2009-04-09 08:00:48 51°15.681 2°49.796 279.5 12.7 275 12
2009-04-09 08:00:53 51°15.682 2°49.768 279.5 12.7 275 12
2009-04-09 08:00:58 51°15.684 2°49.74 279.8 12.7 275 11.9
2009-04-09 08:01:03 51°15.685 2°49.713 280.1 12.6 276 11.8
2009-04-09 08:01:08 51°15.687 2°49.685 280.1 12.7 274 11.6
2009-04-09 08:01:13 51°15.688 2°49.657 279.5 12.6 275 11.5
2009-04-09 08:01:18 51°15.69 2°49.629 279.4 12.6 274 11.5
2009-04-09 08:01:22 51°15.691 2°49.607 278.9 12.6 274 11.3
2009-04-09 08:01:28 51°15.692 2°49.574 279.1 12.6 275 11.2
2009-04-09 08:01:33 51°15.694 2°49.546 279.6 12.6 274 11
2009-04-09 08:01:38 51°15.695 2°49.518 279.3 12.6 274 11
2009-04-09 08:01:42 51°15.696 2°49.496 279.3 12.6 275 10.9
2009-04-09 08:01:48 51°15.698 2°49.463 279.5 12.6 275 10.7
2009-04-09 08:01:53 51°15.699 2°49.435 279.5 12.6 275 10.6
2009-04-09 08:01:58 51°15.701 2°49.407 279.4 12.6 275 10.5
2009-04-09 08:02:02 51°15.702 2°49.385 279.3 12.6 275 10.4
2009-04-09 08:02:08 51°15.704 2°49.352 279.5 12.5 275 10.3
2009-04-09 08:02:13 51°15.705 2°49.324 279.5 12.6 274 10.2
2009-04-09 08:02:18 51°15.706 2°49.296 279.5 12.6 274 10.2
2009-04-09 08:02:22 51°15.707 2°49.274 279.3 12.6 275 10.1
2009-04-09 08:02:28 51°15.709 2°49.241 279.5 12.6 275 10
2009-04-09 08:02:33 51°15.711 2°49.213 279.7 12.6 275 10
2009-04-09 08:02:38 51°15.712 2°49.186 279.7 12.6 274 9.9
2009-04-09 08:02:42 51°15.713 2°49.163 279.4 12.6 274 9.9
2009-04-09 08:02:48 51°15.715 2°49.13 279.4 12.6 275 9.9
2009-04-09 08:02:53 51°15.716 2°49.102 279.5 12.6 275 9.9
2009-04-09 08:02:58 51°15.717 2°49.075 279.8 12.6 275 9.9
2009-04-09 08:03:02 51°15.719 2°49.053 279.8 12.6 275 9.9
2009-04-09 08:03:08 51°15.72 2°49.019 280.1 12.6 275 9.9
2009-04-09 08:03:13 51°15.722 2°48.992 280.1 12.6 275 9.9
2009-04-09 08:03:18 51°15.723 2°48.964 279.8 12.6 274 9.9
2009-04-09 08:03:23 51°15.725 2°48.936 279.5 12.6 275 10
2009-04-09 08:03:28 51°15.726 2°48.908 279.3 12.6 274 10
2009-04-09 08:03:33 51°15.727 2°48.88 279.4 12.6 275 10.1
2009-04-09 08:03:38 51°15.729 2°48.852 279.5 12.7 274 10.1
2009-04-09 08:03:43 51°15.73 2°48.825 279.7 12.7 275 10.1
2009-04-09 08:03:48 51°15.731 2°48.797 279.5 12.7 273 10.2
2009-04-09 08:03:53 51°15.732 2°48.769 279.2 12.7 274 10.2
2009-04-09 08:03:58 51°15.734 2°48.741 279.4 12.7 274 10.3
2009-04-09 08:04:03 51°15.735 2°48.713 279.3 12.7 274 10.4
2009-04-09 08:04:07 51°15.736 2°48.69 279.2 12.7 274 10.4
2009-04-09 08:04:13 51°15.737 2°48.656 279.1 12.7 274 10.5
2009-04-09 08:04:18 51°15.739 2°48.628 279.3 12.8 274 10.5
2009-04-09 08:04:23 51°15.74 2°48.6 279.5 12.8 274 10.6
2009-04-09 08:04:27 51°15.741 2°48.578 279.5 12.8 274 10.6
2009-04-09 08:04:34 51°15.743 2°48.538 279.2 12.8 274 10.7
2009-04-09 08:04:38 51°15.744 2°48.516 279.1 12.8 274 10.8
2009-04-09 08:04:43 51°15.745 2°48.488 279.3 12.8 274 10.8
2009-04-09 08:04:48 51°15.746 2°48.459 279.5 12.8 274 10.9
2009-04-09 08:04:54 51°15.748 2°48.426 279.4 12.8 274 11
2009-04-09 08:04:58 51°15.749 2°48.403 279.2 12.8 274 11.1
2009-04-09 08:05:03 51°15.75 2°48.375 279.1 12.8 274 11.1
2009-04-09 08:05:08 51°15.751 2°48.347 279.3 12.8 274 11.2
2009-04-09 08:05:13 51°15.753 2°48.318 279.5 12.8 274 11.4
2009-04-09 08:05:18 51°15.754 2°48.29 279.2 12.9 274 11.5
2009-04-09 08:05:22 51°15.755 2°48.267 279.1 12.9 274 11.6
2009-04-09 08:05:28 51°15.756 2°48.233 279.1 12.9 274 11.7
2009-04-09 08:05:32 51°15.758 2°48.21 279.4 12.9 274 11.8
2009-04-09 08:05:38 51°15.759 2°48.176 279.5 12.9 274 12
2009-04-09 08:05:42 51°15.76 2°48.153 279.5 12.9 274 12.1
2009-04-09 08:05:48 51°15.762 2°48.119 279.4 13 274 12.2
2009-04-09 08:05:53 51°15.763 2°48.091 279.2 13 274 12.4
2009-04-09 08:05:58 51°15.764 2°48.062 279.2 13 274 12.5
2009-04-09 08:06:02 51°15.765 2°48.039 279.2 13 274 12.7
2009-04-09 08:06:08 51°15.766 2°48.005 279.1 13 274 12.8
2009-04-09 08:06:13 51°15.768 2°47.976 279.1 13 274 12.9
2009-04-09 08:06:18 51°15.769 2°47.947 279 13 274 13
2009-04-09 08:06:22 51°15.77 2°47.924 279.2 13 274 13.1
2009-04-09 08:06:28 51°15.771 2°47.89 279.5 13 274 13.3
2009-04-09 08:06:33 51°15.773 2°47.861 279.5 13 274 13.4
2009-04-09 08:06:38 51°15.774 2°47.833 279.5 13 274 13.5
2009-04-09 08:06:42 51°15.775 2°47.81 279.2 13 274 13.7
2009-04-09 08:06:48 51°15.777 2°47.775 279.1 13 274 13.8
2009-04-09 08:06:53 51°15.778 2°47.747 278.8 13 274 13.9
2009-04-09 08:06:58 51°15.779 2°47.718 278.8 13 275 13.9
2009-04-09 08:07:03 51°15.78 2°47.689 279.2 13 274 14
2009-04-09 08:07:08 51°15.782 2°47.661 279.5 13 275 14.1
2009-04-09 08:07:13 51°15.783 2°47.632 279.6 13 275 14.2
2009-04-09 08:07:18 51°15.785 2°47.603 279.2 13 274 14.2
2009-04-09 08:07:22 51°15.786 2°47.58 279.5 13 275 14.3
2009-04-09 08:07:28 51°15.787 2°47.546 279.5 13 274 14.4
2009-04-09 08:07:33 51°15.789 2°47.517 279.4 13 274 14.5
2009-04-09 08:07:38 51°15.789 2°47.489 278.4 13 272 14.4
2009-04-09 08:07:42 51°15.79 2°47.466 277.8 13 273 14.5
2009-04-09 08:07:48 51°15.791 2°47.431 277.3 13 272 14.5
2009-04-09 08:07:53 51°15.792 2°47.402 277.2 13 273 14.6
2009-04-09 08:07:58 51°15.793 2°47.373 276.8 13 272 14.8
2009-04-09 08:08:03 51°15.793 2°47.345 276.7 13 273 15
2009-04-09 08:08:08 51°15.794 2°47.316 277.1 13 272 15.1
2009-04-09 08:08:13 51°15.795 2°47.287 277.1 13.1 273 15.1
2009-04-09 08:08:18 51°15.796 2°47.258 277.2 13 273 15.2
2009-04-09 08:08:23 51°15.797 2°47.229 277.4 13 273 15.2
2009-04-09 08:08:28 51°15.798 2°47.201 277.1 13 273 15.3
2009-04-09 08:08:33 51°15.798 2°47.172 277.2 13 273 15.4
2009-04-09 08:08:38 51°15.8 2°47.143 277.3 13 273 15.5
2009-04-09 08:08:43 51°15.801 2°47.115 277.6 13 274 15.8
2009-04-09 08:08:47 51°15.802 2°47.092 277.8 13 274 15.8
2009-04-09 08:08:53 51°15.803 2°47.057 278 13 274 15.9
2009-04-09 08:08:58 51°15.804 2°47.029 278 13 273 16
2009-04-09 08:09:03 51°15.806 2°47 278.1 13 275 16.1
2009-04-09 08:09:07 51°15.807 2°46.977 278.8 13 275 16.1
2009-04-09 08:09:14 51°15.809 2°46.937 279.5 13 276 16
2009-04-09 08:09:18 51°15.811 2°46.914 280.1 13 276 16.1
2009-04-09 08:09:23 51°15.813 2°46.886 280.3 12.9 276 16.1
2009-04-09 08:09:28 51°15.814 2°46.857 279.3 12.9 274 16.1
2009-04-09 08:09:34 51°15.816 2°46.823 279 12.9 275 16.2
2009-04-09 08:09:38 51°15.817 2°46.8 278.8 12.9 274 16.2
2009-04-09 08:09:43 51°15.818 2°46.772 278.1 12.9 274 16.3
2009-04-09 08:09:48 51°15.82 2°46.743 278 12.9 274 16.3
2009-04-09 08:09:53 51°15.821 2°46.715 278.8 12.9 275 16.2
2009-04-09 08:09:58 51°15.823 2°46.687 279.5 12.9 275 16.3
2009-04-09 08:10:02 51°15.824 2°46.664 279.7 12.9 276 16.3
2009-04-09 08:10:08 51°15.826 2°46.63 280.2 12.9 276 16.2
2009-04-09 08:10:12 51°15.828 2°46.607 280.4 12.9 276 16.2
2009-04-09 08:10:18 51°15.83 2°46.573 280.3 12.9 276 16.2
2009-04-09 08:10:22 51°15.831 2°46.55 280.1 12.9 276 16.1
2009-04-09 08:10:28 51°15.834 2°46.516 280.1 12.9 276 16.1
2009-04-09 08:10:33 51°15.835 2°46.488 280.4 12.9 276 16
2009-04-09 08:10:38 51°15.837 2°46.46 280.4 12.9 275 15.9
2009-04-09 08:10:42 51°15.838 2°46.437 279.9 12.9 275 15.9
2009-04-09 08:10:48 51°15.841 2°46.403 280.2 12.9 276 15.9
2009-04-09 08:10:53 51°15.842 2°46.374 280.3 12.9 275 15.9
2009-04-09 08:10:58 51°15.844 2°46.346 280.1 12.9 276 15.8
2009-04-09 08:11:02 51°15.845 2°46.323 280 12.9 275 15.7
2009-04-09 08:11:08 51°15.847 2°46.289 279.8 12.9 275 15.7
2009-04-09 08:11:13 51°15.849 2°46.261 279.7 12.9 275 15.7
2009-04-09 08:11:18 51°15.85 2°46.232 279.7 12.9 274 15.6
2009-04-09 08:11:22 51°15.851 2°46.21 279 12.8 275 15.5
2009-04-09 08:11:28 51°15.853 2°46.176 279.1 12.8 275 15.5
2009-04-09 08:11:33 51°15.855 2°46.147 279.5 12.8 275 15.4
2009-04-09 08:11:38 51°15.856 2°46.119 280.1 12.8 276 15.3
2009-04-09 08:11:43 51°15.858 2°46.091 280.4 12.8 276 15.3
2009-04-09 08:11:48 51°15.86 2°46.063 280.4 12.8 275 15
2009-04-09 08:11:53 51°15.862 2°46.035 280.4 12.8 276 14.8
2009-04-09 08:11:58 51°15.863 2°46.007 280.2 12.8 275 14.7
2009-04-09 08:12:02 51°15.865 2°45.984 280 12.8 275 14.6
2009-04-09 08:12:08 51°15.866 2°45.951 279.7 12.7 275 14.7
2009-04-09 08:12:13 51°15.868 2°45.923 279.7 12.8 275 14.5
2009-04-09 08:12:18 51°15.87 2°45.894 279.9 12.8 275 13.8
2009-04-09 08:12:23 51°15.871 2°45.867 280.1 12.7 275 13.9
2009-04-09 08:12:28 51°15.873 2°45.839 279.9 12.7 275 14
2009-04-09 08:12:33 51°15.874 2°45.811 279.9 12.7 275 13.9
2009-04-09 08:12:38 51°15.876 2°45.783 279.8 12.7 275 13.7
2009-04-09 08:12:43 51°15.878 2°45.755 279.9 12.7 276 13.7
2009-04-09 08:12:48 51°15.879 2°45.727 280.2 12.7 275 13.5
2009-04-09 08:12:53 51°15.881 2°45.699 280.2 12.7 275 13.3
2009-04-09 08:12:58 51°15.883 2°45.671 280.1 12.7 275 13.2
2009-04-09 08:13:03 51°15.884 2°45.643 279.9 12.6 275 13.1
2009-04-09 08:13:08 51°15.886 2°45.615 279.8 12.6 275 13.1
2009-04-09 08:13:13 51°15.887 2°45.588 279.7 12.6 275 12
2009-04-09 08:13:18 51°15.889 2°45.56 279.6 12.6 275 12
2009-04-09 08:13:23 51°15.89 2°45.532 279.6 12.6 274 12.3
2009-04-09 08:13:27 51°15.891 2°45.51 279.4 12.6 274 12.1
2009-04-09 08:13:33 51°15.893 2°45.477 279.3 12.6 274 11.7
2009-04-09 08:13:38 51°15.894 2°45.449 279.4 12.6 274 11.6
2009-04-09 08:13:43 51°15.895 2°45.421 279.6 12.6 274 11.7
2009-04-09 08:13:47 51°15.896 2°45.399 279.5 12.6 274 11.6
2009-04-09 08:13:54 51°15.898 2°45.36 279.5 12.6 274 11.4
2009-04-09 08:13:58 51°15.899 2°45.338 279.5 12.6 274 11.5
2009-04-09 08:14:03 51°15.9 2°45.31 279.8 12.6 275 11.6
2009-04-09 08:14:08 51°15.902 2°45.283 279.9 12.6 274 11.6
2009-04-09 08:14:14 51°15.903 2°45.249 280 12.6 274 11.6
2009-04-09 08:14:18 51°15.904 2°45.227 279.5 12.6 273 11.6
2009-04-09 08:14:22 51°15.905 2°45.205 278.5 12.6 272 11.7
2009-04-09 08:14:28 51°15.906 2°45.172 278.1 12.6 272 11.7
2009-04-09 08:14:33 51°15.906 2°45.144 277.5 12.6 271 11.8
2009-04-09 08:14:38 51°15.906 2°45.116 276.9 12.6 272 11.9
2009-04-09 08:14:42 51°15.907 2°45.094 277.6 12.6 272 11.8
2009-04-09 08:14:48 51°15.908 2°45.06 278 12.6 273 11.8
2009-04-09 08:14:52 51°15.908 2°45.038 278.4 12.6 273 11.9
2009-04-09 08:14:58 51°15.91 2°45.005 278.8 12.6 274 11.9
2009-04-09 08:15:02 51°15.911 2°44.983 279.5 12.6 274 11.9
2009-04-09 08:15:08 51°15.912 2°44.949 279.8 12.6 274 10.6
2009-04-09 08:15:13 51°15.913 2°44.922 280.1 12.6 273 10.3
2009-04-09 08:15:18 51°15.914 2°44.894 279.9 12.5 273 10.5
2009-04-09 08:15:22 51°15.915 2°44.872 279.6 12.5 273 11.1
2009-04-09 08:15:28 51°15.916 2°44.838 279.6 12.6 274 11.2
2009-04-09 08:15:33 51°15.917 2°44.811 280.1 12.6 274 11.2
2009-04-09 08:15:38 51°15.918 2°44.783 280.2 12.7 273 11.4
2009-04-09 08:15:42 51°15.919 2°44.76 279.8 12.7 273 11.4
2009-04-09 08:15:48 51°15.92 2°44.727 279.6 12.6 273 11.4
2009-04-09 08:15:53 51°15.921 2°44.699 279.8 12.7 273 11.4
2009-04-09 08:15:58 51°15.922 2°44.671 279.8 12.6 273 11.3
2009-04-09 08:16:02 51°15.923 2°44.649 279.8 12.6 273 11.3
2009-04-09 08:16:08 51°15.924 2°44.615 279.6 12.6 273 11.2
2009-04-09 08:16:13 51°15.925 2°44.587 279.5 12.6 274 11.1
2009-04-09 08:16:18 51°15.927 2°44.56 279.4 12.5 275 11
2009-04-09 08:16:23 51°15.929 2°44.532 281 12.4 278 10.7
2009-04-09 08:16:28 51°15.933 2°44.506 287.2 12.1 287 10.7
2009-04-09 08:16:33 51°15.939 2°44.481 292.8 12.1 286 10.6
2009-04-09 08:16:38 51°15.943 2°44.455 293.7 12.1 288 10.7
2009-04-09 08:16:43 51°15.95 2°44.431 296.6 12 293 10.6
2009-04-09 08:16:48 51°15.956 2°44.406 298.4 12.1 291 10.6
2009-04-09 08:16:53 51°15.963 2°44.382 301.4 11.9 300 10.5
2009-04-09 08:16:58 51°15.972 2°44.36 306.3 11.9 300 10.5
2009-04-09 08:17:03 51°15.98 2°44.337 308.6 11.8 302 10.6
2009-04-09 08:17:07 51°15.988 2°44.32 310.7 11.8 305 10.6
2009-04-09 08:17:13 51°15.999 2°44.294 312.2 11.8 305 10.6
2009-04-09 08:17:18 51°16.009 2°44.273 313.5 11.8 307 10.5
2009-04-09 08:17:23 51°16.019 2°44.253 314.5 11.8 306 10.5
2009-04-09 08:17:27 51°16.027 2°44.236 315 11.7 309 10.5
2009-04-09 08:17:33 51°16.039 2°44.212 315.8 11.7 309 10.7
2009-04-09 08:17:38 51°16.05 2°44.193 318.7 11.6 315 10.7
2009-04-09 08:17:43 51°16.061 2°44.175 320.6 11.7 312 10.9
2009-04-09 08:17:48 51°16.072 2°44.156 322 11.6 316 10.9
2009-04-09 08:17:53 51°16.084 2°44.139 323.4 11.6 316 10.9
2009-04-09 08:17:58 51°16.096 2°44.121 324.1 11.6 317 11
2009-04-09 08:18:03 51°16.108 2°44.104 325.1 11.6 318 11.1
2009-04-09 08:18:08 51°16.119 2°44.087 325.8 11.6 318 11
2009-04-09 08:18:14 51°16.134 2°44.067 326.6 11.5 319 11
2009-04-09 08:18:18 51°16.143 2°44.053 326.7 11.5 318 10.9
2009-04-09 08:18:22 51°16.153 2°44.04 327.3 11.5 320 11
2009-04-09 08:18:28 51°16.168 2°44.02 327.6 11.6 319 11.2
2009-04-09 08:18:34 51°16.182 2°44 327.7 11.6 320 11.4
2009-04-09 08:18:38 51°16.192 2°43.986 328 11.6 319 11.5
2009-04-09 08:18:42 51°16.201 2°43.973 327.9 11.6 319 11.6
2009-04-09 08:18:48 51°16.216 2°43.953 327.7 11.6 319 11.7
2009-04-09 08:18:53 51°16.228 2°43.936 327.9 11.6 319 11.9
2009-04-09 08:18:58 51°16.24 2°43.919 327.9 11.6 319 12.2
2009-04-09 08:19:02 51°16.25 2°43.905 327.4 11.6 318 12.3
2009-04-09 08:19:08 51°16.265 2°43.885 327.4 11.6 319 12.5
2009-04-09 08:19:13 51°16.277 2°43.868 327.4 11.6 319 12.8
2009-04-09 08:19:18 51°16.289 2°43.851 327.6 11.7 319 13
2009-04-09 08:19:22 51°16.299 2°43.837 327.8 11.7 319 13.2
2009-04-09 08:19:28 51°16.313 2°43.817 328 11.7 319 13.3
2009-04-09 08:19:33 51°16.325 2°43.8 327.9 11.7 318 13.6
2009-04-09 08:19:38 51°16.337 2°43.782 327.8 11.7 319 13.6
2009-04-09 08:19:42 51°16.347 2°43.769 328.6 11.7 320 13.6
2009-04-09 08:19:48 51°16.362 2°43.749 328.6 11.7 319 13.6
2009-04-09 08:19:53 51°16.375 2°43.733 328.9 11.6 320 13.6
2009-04-09 08:19:58 51°16.387 2°43.716 328.9 11.7 319 13.6
2009-04-09 08:20:03 51°16.399 2°43.7 328.5 11.6 319 13.6
2009-04-09 08:20:08 51°16.411 2°43.682 328.4 11.6 319 13.7
2009-04-09 08:20:13 51°16.424 2°43.666 328.8 11.6 320 13.7
2009-04-09 08:20:18 51°16.436 2°43.649 328.9 11.6 319 13.8
2009-04-09 08:20:23 51°16.448 2°43.632 328.7 11.7 319 13.9
2009-04-09 08:20:28 51°16.46 2°43.615 328.6 11.7 320 13.9
2009-04-09 08:20:33 51°16.473 2°43.598 328.9 11.6 320 14.1
2009-04-09 08:20:38 51°16.485 2°43.582 329.1 11.7 319 14.1
2009-04-09 08:20:43 51°16.497 2°43.565 328.9 11.7 319 14.3
2009-04-09 08:20:48 51°16.51 2°43.548 328.7 11.7 319 14.5
2009-04-09 08:20:54 51°16.524 2°43.528 328.7 11.7 319 14.5
2009-04-09 08:20:58 51°16.534 2°43.514 329 11.7 320 14.2
2009-04-09 08:21:03 51°16.547 2°43.498 329.4 11.7 320 14.2
2009-04-09 08:21:07 51°16.556 2°43.484 329.1 11.7 319 13.5
2009-04-09 08:21:14 51°16.574 2°43.46 329.2 11.6 320 13.1
2009-04-09 08:21:18 51°16.583 2°43.446 328.1 11.8 316 13
2009-04-09 08:21:23 51°16.595 2°43.428 326.6 11.7 317 13
2009-04-09 08:21:27 51°16.604 2°43.414 326 11.8 315 13
2009-04-09 08:21:33 51°16.618 2°43.391 324.9 11.8 315 13
2009-04-09 08:21:38 51°16.63 2°43.373 325.1 11.8 316 13
2009-04-09 08:21:43 51°16.641 2°43.354 325.5 11.8 316 13
2009-04-09 08:21:48 51°16.653 2°43.337 325.7 11.8 316 13
2009-04-09 08:21:53 51°16.665 2°43.318 325.7 11.9 316 13.1
2009-04-09 08:21:58 51°16.677 2°43.3 325.5 11.9 316 13.1
2009-04-09 08:22:03 51°16.689 2°43.282 325.4 11.9 316 12.8
2009-04-09 08:22:08 51°16.701 2°43.263 325.3 11.9 316 12.6
2009-04-09 08:22:14 51°16.715 2°43.241 325.3 11.9 315 12.4
2009-04-09 08:22:18 51°16.724 2°43.227 325 11.9 315 12.4
2009-04-09 08:22:22 51°16.734 2°43.212 324.9 11.9 316 12.1
2009-04-09 08:22:28 51°16.748 2°43.19 325.2 11.9 315 12
2009-04-09 08:22:34 51°16.762 2°43.168 325.2 12 315 11.7
2009-04-09 08:22:38 51°16.771 2°43.152 325.3 11.9 315 11.8
2009-04-09 08:22:42 51°16.781 2°43.137 325.1 11.9 314 11.4
2009-04-09 08:22:48 51°16.793 2°43.112 322 12 310 11.4
2009-04-09 08:22:53 51°16.805 2°43.093 321.1 12 312 11.5
2009-04-09 08:22:58 51°16.815 2°43.072 319.4 12.2 307 12
2009-04-09 08:23:02 51°16.824 2°43.055 318.3 12.1 310 12.2
2009-04-09 08:23:08 51°16.836 2°43.029 317.4 12.2 306 12.1
2009-04-09 08:23:13 51°16.846 2°43.008 315.8 12.2 306 11.9
2009-04-09 08:23:18 51°16.855 2°42.985 314.7 12.3 305 11.7
2009-04-09 08:23:22 51°16.863 2°42.967 314.4 12.3 305 11.4
2009-04-09 08:23:28 51°16.874 2°42.94 313.8 12.3 304 11.9
2009-04-09 08:23:33 51°16.884 2°42.917 313.4 12.3 304 11.6
2009-04-09 08:23:38 51°16.894 2°42.895 313.3 12.3 304 11.1
2009-04-09 08:23:42 51°16.901 2°42.876 312.1 12.4 302 10.5
2009-04-09 08:23:48 51°16.912 2°42.849 311.5 12.3 303 9.9
2009-04-09 08:23:53 51°16.921 2°42.825 310.9 12.3 301 9.3
2009-04-09 08:23:58 51°16.93 2°42.802 310.2 12.3 301 8.2
2009-04-09 08:24:03 51°16.938 2°42.779 309.8 12.3 300 10
2009-04-09 08:24:08 51°16.947 2°42.756 309.7 12.4 302 10.1
2009-04-09 08:24:13 51°16.956 2°42.732 309.6 12.5 300 9.7
2009-04-09 08:24:18 51°16.965 2°42.708 309.1 12.5 301 9.6
2009-04-09 08:24:23 51°16.973 2°42.683 307.2 12.6 297 9.5
2009-04-09 08:24:28 51°16.981 2°42.659 306.4 12.5 299 9.3
2009-04-09 08:24:33 51°16.989 2°42.634 305.5 12.5 296 8.8
2009-04-09 08:24:38 51°16.997 2°42.609 304.4 12.5 297 8.9
2009-04-09 08:24:43 51°17.004 2°42.585 304.1 12.5 296 8.9
2009-04-09 08:24:48 51°17.011 2°42.559 303.1 12.5 295 8.9
2009-04-09 08:24:53 51°17.019 2°42.535 303.1 12.6 296 9.6
2009-04-09 08:24:58 51°17.027 2°42.509 302.7 12.7 295 9.4
2009-04-09 08:25:03 51°17.034 2°42.484 302.3 12.7 295 9.4
2009-04-09 08:25:07 51°17.04 2°42.464 302 12.7 295 9.5
2009-04-09 08:25:14 51°17.051 2°42.428 301.9 12.7 296 9.3
2009-04-09 08:25:18 51°17.057 2°42.407 302 12.7 295 9.2
2009-04-09 08:25:23 51°17.064 2°42.382 302 12.7 296 10.1
2009-04-09 08:25:28 51°17.072 2°42.356 302.3 12.8 296 11
2009-04-09 08:25:34 51°17.081 2°42.326 302.5 12.8 295 11.7
2009-04-09 08:25:38 51°17.087 2°42.305 301.3 12.9 293 13
2009-04-09 08:25:43 51°17.093 2°42.278 298.4 12.9 290 15
2009-04-09 08:25:48 51°17.1 2°42.252 297.5 12.9 291 16.7
2009-04-09 08:25:54 51°17.106 2°42.218 294.8 13 285 17.8
2009-04-09 08:25:58 51°17.11 2°42.197 293.7 12.9 289 18.6
2009-04-09 08:26:02 51°17.115 2°42.175 293.3 12.9 285 19.1
2009-04-09 08:26:08 51°17.12 2°42.142 292.4 12.9 287 19.5
2009-04-09 08:26:13 51°17.125 2°42.115 291.2 12.9 284 19.9
2009-04-09 08:26:18 51°17.129 2°42.087 289.7 13 284 20.3
2009-04-09 08:26:22 51°17.133 2°42.065 289 13 283 20.5
2009-04-09 08:26:28 51°17.137 2°42.031 288 13 282 20.8
2009-04-09 08:26:33 51°17.14 2°42.003 287.3 13 281 21.1
2009-04-09 08:26:38 51°17.144 2°41.974 286.8 13.1 281 21.3
2009-04-09 08:26:42 51°17.147 2°41.951 286.5 13.1 281 21.6
2009-04-09 08:26:48 51°17.151 2°41.917 286.2 13.1 281 21.8
2009-04-09 08:26:53 51°17.154 2°41.889 285.3 13.1 279 22
2009-04-09 08:26:58 51°17.157 2°41.861 284.7 13.1 280 22.1
2009-04-09 08:27:02 51°17.159 2°41.838 285.3 13.1 280 22.3
2009-04-09 08:27:08 51°17.163 2°41.803 285.6 13.1 280 22.4
2009-04-09 08:27:13 51°17.166 2°41.775 285.8 13.1 280 22.5
2009-04-09 08:27:18 51°17.169 2°41.746 284.6 13.2 277 22.6
2009-04-09 08:27:22 51°17.17 2°41.723 283.1 13.2 277 22.7
2009-04-09 08:27:28 51°17.173 2°41.688 282.5 13.2 277 22.9
2009-04-09 08:27:33 51°17.175 2°41.659 281.3 13.3 275 23
2009-04-09 08:27:38 51°17.177 2°41.63 281 13.3 276 23.1
2009-04-09 08:27:42 51°17.178 2°41.606 280.1 13.3 273 23.2
2009-04-09 08:27:48 51°17.18 2°41.571 279.7 13.3 275 23.4
2009-04-09 08:27:53 51°17.181 2°41.542 279.8 13.3 274 23.5
2009-04-09 08:27:58 51°17.182 2°41.512 279.4 13.4 274 23.5
2009-04-09 08:28:03 51°17.184 2°41.483 279.2 13.4 274 23.5
2009-04-09 08:28:08 51°17.185 2°41.453 279.4 13.3 274 23.5
2009-04-09 08:28:13 51°17.187 2°41.424 279.5 13.4 275 23.6
2009-04-09 08:28:18 51°17.188 2°41.394 279.9 13.4 275 23.3
2009-04-09 08:28:23 51°17.19 2°41.365 279.9 13.4 275 23.5
2009-04-09 08:28:28 51°17.191 2°41.336 279.8 13.4 274 23.3
2009-04-09 08:28:33 51°17.192 2°41.306 279.7 13.4 275 23.3
2009-04-09 08:28:38 51°17.194 2°41.276 279.8 13.4 274 23.4
2009-04-09 08:28:43 51°17.195 2°41.247 279.7 13.4 274 23.2
2009-04-09 08:28:48 51°17.197 2°41.217 280.2 13.4 275 23.3
2009-04-09 08:28:53 51°17.198 2°41.188 280.3 13.4 275 23.2
2009-04-09 08:28:58 51°17.2 2°41.158 280.3 13.4 275 23.1
2009-04-09 08:29:03 51°17.201 2°41.128 280.2 13.5 274 23.1
2009-04-09 08:29:07 51°17.202 2°41.105 280 13.4 275 23
2009-04-09 08:29:13 51°17.204 2°41.069 280.2 13.4 274 23
2009-04-09 08:29:18 51°17.206 2°41.04 280.4 13.4 275 23
2009-04-09 08:29:23 51°17.207 2°41.01 280.8 13.4 275 23
2009-04-09 08:29:28 51°17.209 2°40.98 280.8 13.5 275 22.9
2009-04-09 08:29:34 51°17.211 2°40.945 280.6 13.5 275 22.8
2009-04-09 08:29:38 51°17.212 2°40.921 280.5 13.5 274 22.7
2009-04-09 08:29:43 51°17.213 2°40.891 280.3 13.5 275 22.7
2009-04-09 08:29:48 51°17.215 2°40.862 280.4 13.4 274 22.6
2009-04-09 08:29:54 51°17.216 2°40.826 280.1 13.5 274 22.4
2009-04-09 08:29:58 51°17.217 2°40.802 279.2 13.5 273 22.2
2009-04-09 08:30:02 51°17.218 2°40.778 278.8 13.5 273 22.1
2009-04-09 08:30:08 51°17.219 2°40.743 278.6 13.5 273 22
2009-04-09 08:30:14 51°17.221 2°40.707 279.6 13.5 275 21.6
2009-04-09 08:30:18 51°17.221 2°40.683 279.9 13.5 273 21.6
2009-04-09 08:30:22 51°17.223 2°40.659 280.4 13.5 275 21.4
2009-04-09 08:30:28 51°17.225 2°40.624 281 13.5 275 21
2009-04-09 08:30:33 51°17.226 2°40.594 281 13.5 274 21
2009-04-09 08:30:38 51°17.228 2°40.564 281 13.5 275 20.7
2009-04-09 08:30:42 51°17.229 2°40.54 281 13.5 274 20.1
2009-04-09 08:30:48 51°17.231 2°40.504 281 13.5 275 20.3
2009-04-09 08:30:53 51°17.232 2°40.475 281 13.5 275 19.9
2009-04-09 08:30:58 51°17.234 2°40.445 281.1 13.5 275 19.7
2009-04-09 08:31:02 51°17.235 2°40.421 281.1 13.5 274 19.5
2009-04-09 08:31:08 51°17.237 2°40.385 281 13.5 275 19.2
2009-04-09 08:31:13 51°17.238 2°40.355 281 13.5 275 18.8
2009-04-09 08:31:18 51°17.24 2°40.326 281.1 13.5 275 18.4
2009-04-09 08:31:22 51°17.241 2°40.302 281.2 13.5 275 18.2
2009-04-09 08:31:28 51°17.243 2°40.266 281.3 13.5 275 17.5
2009-04-09 08:31:33 51°17.244 2°40.236 281.3 13.5 275 17.4
2009-04-09 08:31:38 51°17.246 2°40.207 281.2 13.5 275 16.6
2009-04-09 08:31:43 51°17.248 2°40.177 281.7 13.5 275 16.2
2009-04-09 08:31:48 51°17.25 2°40.147 281.9 13.5 275 14.8
2009-04-09 08:31:53 51°17.251 2°40.117 281.8 13.5 275 16.3
2009-04-09 08:31:58 51°17.253 2°40.088 281.7 13.5 275 15.8
2009-04-09 08:32:03 51°17.255 2°40.058 281.8 13.5 275 15.5
2009-04-09 08:32:08 51°17.256 2°40.028 281.7 13.4 275 14.9
2009-04-09 08:32:14 51°17.258 2°39.993 281.3 13.5 275 13.9
2009-04-09 08:32:18 51°17.259 2°39.969 281.1 13.5 275 14.6
2009-04-09 08:32:23 51°17.261 2°39.939 281.7 13.4 276 14.3
2009-04-09 08:32:28 51°17.263 2°39.909 282 13.4 275 13.8
2009-04-09 08:32:34 51°17.265 2°39.874 282 13.5 275 13.1
2009-04-09 08:32:38 51°17.266 2°39.85 281.8 13.4 275 13.6
2009-04-09 08:32:43 51°17.268 2°39.821 281.8 13.5 275 13.2
2009-04-09 08:32:47 51°17.27 2°39.797 281.9 13.4 276 12.6
2009-04-09 08:32:53 51°17.272 2°39.761 282 13.5 275 13.2
2009-04-09 08:32:58 51°17.273 2°39.732 281.7 13.5 275 13.4
2009-04-09 08:33:03 51°17.275 2°39.702 281.4 13.4 275 13.1
2009-04-09 08:33:07 51°17.276 2°39.678 281.4 13.4 275 12.3
2009-04-09 08:33:13 51°17.278 2°39.642 281.2 13.4 276 12.9
2009-04-09 08:33:18 51°17.28 2°39.613 281.6 13.4 275 12.4
2009-04-09 08:33:23 51°17.282 2°39.583 281.5 13.4 275 11.6
2009-04-09 08:33:28 51°17.284 2°39.554 281.4 13.4 275 12.4
2009-04-09 08:33:34 51°17.286 2°39.519 281.5 13.3 275 12.3
2009-04-09 08:33:38 51°17.287 2°39.495 280.7 13.4 274 11.6
2009-04-09 08:33:43 51°17.288 2°39.466 280 13.3 275 10.8
2009-04-09 08:33:48 51°17.289 2°39.436 279.6 13.3 274 10.8
2009-04-09 08:33:53 51°17.291 2°39.407 279.1 13.2 274 11.1
2009-04-09 08:33:58 51°17.292 2°39.378 279 13.2 274 11
2009-04-09 08:34:03 51°17.293 2°39.349 279.1 13.3 273 10.5
2009-04-09 08:34:07 51°17.294 2°39.325 278.8 13.2 274 10.2
2009-04-09 08:34:14 51°17.296 2°39.284 278.7 13.2 273 11.1
2009-04-09 08:34:18 51°17.297 2°39.261 278.6 13.2 274 11.8
2009-04-09 08:34:23 51°17.298 2°39.232 278.7 13.3 274 11.8
2009-04-09 08:34:28 51°17.3 2°39.202 279 13.4 275 12.6
2009-04-09 08:34:34 51°17.301 2°39.167 279.2 13.4 275 12.7
2009-04-09 08:34:38 51°17.303 2°39.143 279.4 13.4 275 14.8
2009-04-09 08:34:43 51°17.304 2°39.114 279.5 13.4 275 16.8
2009-04-09 08:34:48 51°17.306 2°39.084 279.5 13.4 275 17.7
2009-04-09 08:34:54 51°17.308 2°39.049 280.1 13.4 275 16
2009-04-09 08:34:58 51°17.309 2°39.025 280 13.4 275 17.9
2009-04-09 08:35:02 51°17.31 2°39.001 279.5 13.4 274 19.2
2009-04-09 08:35:08 51°17.312 2°38.966 279.5 13.4 275 19.8
2009-04-09 08:35:13 51°17.313 2°38.936 279.5 13.5 275 20.4
2009-04-09 08:35:18 51°17.315 2°38.906 279.7 13.4 275 20.8
2009-04-09 08:35:22 51°17.316 2°38.882 279.9 13.5 275 21.4
2009-04-09 08:35:28 51°17.318 2°38.847 279.9 13.5 275 21.8
2009-04-09 08:35:33 51°17.32 2°38.817 280.2 13.5 275 22.1
2009-04-09 08:35:38 51°17.322 2°38.787 281.1 13.4 276 22.8
2009-04-09 08:35:42 51°17.323 2°38.763 281.6 13.5 276 23.8
2009-04-09 08:35:48 51°17.325 2°38.728 281.6 13.5 275 23.9
2009-04-09 08:35:53 51°17.327 2°38.698 281.1 13.5 276 24.3
2009-04-09 08:35:58 51°17.329 2°38.668 281 13.5 275 24.8
2009-04-09 08:36:02 51°17.33 2°38.644 280.5 13.5 275 25.1
2009-04-09 08:36:08 51°17.332 2°38.608 279.7 13.6 273 25.5
2009-04-09 08:36:13 51°17.333 2°38.578 279.1 13.6 274 25.8
2009-04-09 08:36:18 51°17.334 2°38.548 278.8 13.6 273 25.8
2009-04-09 08:36:22 51°17.335 2°38.524 278.4 13.6 274 26
2009-04-09 08:36:28 51°17.336 2°38.488 278.3 13.6 273 26.2
2009-04-09 08:36:33 51°17.337 2°38.458 278.6 13.6 274 26.1
2009-04-09 08:36:38 51°17.339 2°38.428 279.6 13.6 275 26
2009-04-09 08:36:43 51°17.34 2°38.398 279.8 13.6 274 26.3
2009-04-09 08:36:48 51°17.342 2°38.368 280 13.6 276 26.3
2009-04-09 08:36:53 51°17.344 2°38.338 280.3 13.6 275 26.5
2009-04-09 08:36:58 51°17.346 2°38.308 280.7 13.6 275 26.4
2009-04-09 08:37:03 51°17.347 2°38.278 280.6 13.6 275 26.4
2009-04-09 08:37:08 51°17.349 2°38.248 280.7 13.6 276 26.4
2009-04-09 08:37:13 51°17.351 2°38.218 280.4 13.6 274 26.6
2009-04-09 08:37:18 51°17.352 2°38.187 279.5 13.6 274 26.5
2009-04-09 08:37:23 51°17.353 2°38.157 279.1 13.6 274 26.6
2009-04-09 08:37:28 51°17.354 2°38.127 278.6 13.7 273 26.6
2009-04-09 08:37:33 51°17.356 2°38.097 278.1 13.6 274 26.7
2009-04-09 08:37:38 51°17.357 2°38.067 277.9 13.6 273 26.7
2009-04-09 08:37:43 51°17.358 2°38.037 278.1 13.6 274 26.7
2009-04-09 08:37:47 51°17.359 2°38.013 279.1 13.6 275 26.8
2009-04-09 08:37:53 51°17.361 2°37.977 279.5 13.6 275 26.6
2009-04-09 08:37:58 51°17.363 2°37.947 279.9 13.6 275 26.6
2009-04-09 08:38:03 51°17.365 2°37.917 280.2 13.6 275 26.6
2009-04-09 08:38:07 51°17.366 2°37.893 280.5 13.5 276 26.6
2009-04-09 08:38:13 51°17.368 2°37.857 280.5 13.5 275 26.6
2009-04-09 08:38:18 51°17.37 2°37.828 280.4 13.5 276 26.5
2009-04-09 08:38:23 51°17.372 2°37.798 280.4 13.5 275 26.5
2009-04-09 08:38:28 51°17.374 2°37.768 280.2 13.5 276 26.5
2009-04-09 08:38:34 51°17.376 2°37.733 280.3 13.5 275 26.6
2009-04-09 08:38:38 51°17.377 2°37.709 280.2 13.5 275 26.6
2009-04-09 08:38:43 51°17.379 2°37.679 280 13.5 275 26.5
2009-04-09 08:38:47 51°17.38 2°37.656 280.2 13.4 276 26.4
2009-04-09 08:38:54 51°17.382 2°37.614 280.2 13.4 275 26.4
2009-04-09 08:38:58 51°17.384 2°37.59 279.9 13.5 275 26.5
2009-04-09 08:39:03 51°17.385 2°37.561 279.8 13.4 275 26.3
2009-04-09 08:39:07 51°17.387 2°37.537 280.1 13.4 275 26.5
2009-04-09 08:39:14 51°17.389 2°37.496 279.9 13.4 275 26.6
2009-04-09 08:39:18 51°17.39 2°37.472 279.9 13.4 275 26.7
2009-04-09 08:39:23 51°17.391 2°37.443 279.9 13.5 274 26.6
2009-04-09 08:39:28 51°17.393 2°37.413 279.7 13.4 275 26.5
2009-04-09 08:39:33 51°17.394 2°37.383 279.6 13.4 274 26.8
2009-04-09 08:39:38 51°17.395 2°37.354 279 13.4 273 26.7
2009-04-09 08:39:43 51°17.397 2°37.324 278.2 13.4 273 26.7
2009-04-09 08:39:48 51°17.397 2°37.294 278.1 13.5 273 26.6
2009-04-09 08:39:53 51°17.399 2°37.265 278.5 13.4 274 26.8
2009-04-09 08:39:58 51°17.4 2°37.235 279.1 13.5 274 26.5
2009-04-09 08:40:02 51°17.401 2°37.211 279.5 13.5 274 26.8
2009-04-09 08:40:08 51°17.403 2°37.175 279.5 13.5 273 26.6
2009-04-09 08:40:14 51°17.404 2°37.14 279.4 13.5 273 26.5
2009-04-09 08:40:18 51°17.405 2°37.116 279.4 13.5 274 26
2009-04-09 08:40:22 51°17.406 2°37.092 279.5 13.5 274 26.2
2009-04-09 08:40:28 51°17.408 2°37.056 279.9 13.5 274 26.1
2009-04-09 08:40:33 51°17.409 2°37.026 280.2 13.5 274 26.4
2009-04-09 08:40:38 51°17.41 2°36.996 280.1 13.6 274 26.5
2009-04-09 08:40:42 51°17.411 2°36.972 279.6 13.6 273 25.9
2009-04-09 08:40:48 51°17.412 2°36.936 278.8 13.6 272 26
2009-04-09 08:40:53 51°17.412 2°36.906 278.3 13.6 272 25.5
2009-04-09 08:40:58 51°17.412 2°36.876 277.3 13.6 271 25.6
2009-04-09 08:41:02 51°17.413 2°36.852 276.8 13.6 271 26.4
2009-04-09 08:41:08 51°17.413 2°36.816 275.7 13.6 269 25.8
2009-04-09 08:41:13 51°17.413 2°36.786 275.2 13.6 270 25.2
2009-04-09 08:41:18 51°17.412 2°36.756 274.5 13.6 268 25.1
2009-04-09 08:41:22 51°17.412 2°36.731 274 13.6 269 24.7
2009-04-09 08:41:28 51°17.411 2°36.695 273.8 13.7 268 24.7
2009-04-09 08:41:33 51°17.411 2°36.664 273.6 13.7 268 24.4
2009-04-09 08:41:38 51°17.41 2°36.634 273.5 13.7 268 23.8
2009-04-09 08:41:43 51°17.41 2°36.604 273.5 13.7 268 23.1
2009-04-09 08:41:48 51°17.409 2°36.573 273.8 13.7 269 23.4
2009-04-09 08:41:54 51°17.409 2°36.537 274.5 13.7 269 23.2
2009-04-09 08:41:58 51°17.409 2°36.513 274.9 13.7 270 22.7
2009-04-09 08:42:03 51°17.409 2°36.483 275.3 13.7 270 22.1
2009-04-09 08:42:08 51°17.408 2°36.452 275.2 13.7 269 21.5
2009-04-09 08:42:13 51°17.408 2°36.422 275 13.7 269 21.3
2009-04-09 08:42:18 51°17.408 2°36.392 275 13.7 269 19.3
2009-04-09 08:42:23 51°17.407 2°36.362 275 13.7 269 19.8
2009-04-09 08:42:28 51°17.407 2°36.331 275 13.7 269 20.2
2009-04-09 08:42:33 51°17.407 2°36.301 275.1 13.6 269 19.5
2009-04-09 08:42:38 51°17.406 2°36.271 275.2 13.6 269 18.8
2009-04-09 08:42:43 51°17.406 2°36.241 275.2 13.6 269 18.3
2009-04-09 08:42:47 51°17.406 2°36.217 276.6 13.6 272 18
2009-04-09 08:42:53 51°17.407 2°36.181 277 13.6 270 18.9
2009-04-09 08:42:58 51°17.407 2°36.151 277.2 13.5 272 18.7
2009-04-09 08:43:03 51°17.408 2°36.121 278.3 13.5 272 18.3
2009-04-09 08:43:09 51°17.408 2°36.085 278.2 13.5 271 17.8
2009-04-09 08:43:14 51°17.409 2°36.055 277.4 13.5 271 16.9
2009-04-09 08:43:18 51°17.409 2°36.032 277.2 13.5 271 16.5
2009-04-09 08:43:23 51°17.41 2°36.002 277.7 13.4 272 15.8
2009-04-09 08:43:28 51°17.41 2°35.972 277.7 13.4 271 15.5
2009-04-09 08:43:34 51°17.411 2°35.937 278.4 13.4 273 14.9
2009-04-09 08:43:38 51°17.411 2°35.913 278.7 13.4 272 14.5
2009-04-09 08:43:42 51°17.412 2°35.889 278.8 13.3 273 14.2
2009-04-09 08:43:48 51°17.413 2°35.854 278.8 13.4 272 13.9
2009-04-09 08:43:54 51°17.414 2°35.819 278.6 13.3 273 13.6
2009-04-09 08:43:58 51°17.415 2°35.795 278.6 13.3 273 13.1
2009-04-09 08:44:02 51°17.415 2°35.77 278.8 13.3 273 12.7
2009-04-09 08:44:08 51°17.416 2°35.735 280.6 13.2 276 12.9
2009-04-09 08:44:13 51°17.418 2°35.706 281 13.2 274 12.3
2009-04-09 08:44:18 51°17.419 2°35.676 281.2 13.2 276 11.3
2009-04-09 08:44:22 51°17.421 2°35.654 282.1 13.1 276 10.9
2009-04-09 08:44:28 51°17.424 2°35.619 282.3 13.1 276 12.3
2009-04-09 08:44:33 51°17.426 2°35.591 282.3 13 277 12
2009-04-09 08:44:38 51°17.427 2°35.562 281.4 13.1 275 11.5
2009-04-09 08:44:42 51°17.429 2°35.54 281 13 276 10.3
2009-04-09 08:44:48 51°17.431 2°35.505 280.9 13 275 11.1
2009-04-09 08:44:53 51°17.432 2°35.477 280.4 13 274 9.5
2009-04-09 08:44:58 51°17.434 2°35.448 280.5 12.9 276 10.2
2009-04-09 08:45:02 51°17.436 2°35.426 281.6 13 276 11.2
2009-04-09 08:45:08 51°17.437 2°35.39 281.7 12.9 276 9.9
2009-04-09 08:45:13 51°17.44 2°35.361 281.7 13 277 11.7
2009-04-09 08:45:18 51°17.442 2°35.333 282.2 13 277 10.8
2009-04-09 08:45:22 51°17.444 2°35.31 282.5 13 278 11.6
2009-04-09 08:45:28 51°17.447 2°35.276 283.1 12.9 278 11.3
2009-04-09 08:45:33 51°17.449 2°35.247 282.9 12.9 277 12.2
2009-04-09 08:45:38 51°17.451 2°35.219 282.8 13 279 13
2009-04-09 08:45:43 51°17.454 2°35.191 283.2 13 278 13
2009-04-09 08:45:48 51°17.456 2°35.162 283.2 13 278 12.7
2009-04-09 08:45:54 51°17.46 2°35.129 283 12.9 278 11.8
2009-04-09 08:45:58 51°17.461 2°35.106 282.8 12.9 278 9.8
2009-04-09 08:46:03 51°17.464 2°35.079 282.8 12.8 278 11.5
2009-04-09 08:46:08 51°17.467 2°35.051 283 12.8 278 12.6
2009-04-09 08:46:14 51°17.471 2°35.016 283.6 12.9 280 12.4
2009-04-09 08:46:18 51°17.474 2°34.993 284.3 13 280 12.3
2009-04-09 08:46:23 51°17.477 2°34.965 285.1 12.9 281 11.8
2009-04-09 08:46:27 51°17.48 2°34.943 285.9 12.9 281 11.9
2009-04-09 08:46:33 51°17.483 2°34.91 285.9 12.9 280 12.9
2009-04-09 08:46:38 51°17.486 2°34.882 285.8 13 281 14
2009-04-09 08:46:43 51°17.49 2°34.854 286.1 13 281 14.9
2009-04-09 08:46:47 51°17.492 2°34.831 286.1 13 281 14.7
2009-04-09 08:46:53 51°17.496 2°34.798 286.1 13 281 10.6
2009-04-09 08:46:58 51°17.499 2°34.77 285.9 12.9 280 9.6
2009-04-09 08:47:03 51°17.502 2°34.742 285.5 12.8 280 12.1
2009-04-09 08:47:08 51°17.506 2°34.714 285.6 12.9 281 12.7
2009-04-09 08:47:14 51°17.51 2°34.68 285.7 13 281 10.2
2009-04-09 08:47:18 51°17.513 2°34.658 286 13 282 8.9
2009-04-09 08:47:23 51°17.516 2°34.63 286.1 12.9 282 13.1
2009-04-09 08:47:28 51°17.52 2°34.601 286 13 282 15.4
2009-04-09 08:47:34 51°17.524 2°34.567 285.8 13.2 281 16.8
2009-04-09 08:47:38 51°17.527 2°34.544 284.8 13.3 279 18.2
2009-04-09 08:47:42 51°17.529 2°34.521 284.3 13.1 280 19.8
2009-04-09 08:47:48 51°17.532 2°34.487 283.2 13.1 277 20.7
2009-04-09 08:47:54 51°17.534 2°34.452 279.9 13.1 273 21.5
2009-04-09 08:47:58 51°17.534 2°34.429 277.6 13.1 272 22.2
2009-04-09 08:48:02 51°17.534 2°34.406 275.4 13 270 22.7
2009-04-09 08:48:08 51°17.534 2°34.371 273.9 13 268 23.4
2009-04-09 08:48:13 51°17.532 2°34.342 270.8 13 265 23
2009-04-09 08:48:18 51°17.529 2°34.314 267.2 12.9 260 23.6
2009-04-09 08:48:22 51°17.527 2°34.292 264.1 12.9 261 23.3
2009-04-09 08:48:28 51°17.522 2°34.258 261.9 12.9 254 23.2
2009-04-09 08:48:33 51°17.518 2°34.231 258.9 12.8 256 23.2
2009-04-09 08:48:38 51°17.512 2°34.204 254.8 12.8 248 23
2009-04-09 08:48:42 51°17.506 2°34.184 251 12.9 248 23
2009-04-09 08:48:48 51°17.498 2°34.152 249 12.9 244 23
2009-04-09 08:48:53 51°17.489 2°34.127 245.4 12.9 241 23.4
2009-04-09 08:48:58 51°17.481 2°34.101 244.2 12.9 242 23.3
2009-04-09 08:49:02 51°17.473 2°34.082 239.6 12.9 234 23.2
2009-04-09 08:49:08 51°17.461 2°34.054 236.9 12.9 236 23.4
2009-04-09 08:49:13 51°17.45 2°34.031 235.1 12.9 231 23.4
2009-04-09 08:49:18 51°17.439 2°34.009 232.3 12.9 231 23.6
2009-04-09 08:49:23 51°17.427 2°33.988 228.2 12.9 226 23.6
2009-04-09 08:49:28 51°17.414 2°33.968 226.1 12.9 225 23.6
2009-04-09 08:49:33 51°17.401 2°33.949 223.4 12.9 222 24
2009-04-09 08:49:38 51°17.387 2°33.93 222 12.9 221 23.7
2009-04-09 08:49:43 51°17.374 2°33.911 220 12.9 220 23.7
2009-04-09 08:49:48 51°17.359 2°33.895 217.8 12.9 216 23.7
2009-04-09 08:49:53 51°17.345 2°33.877 215.8 12.9 217 23.7
2009-04-09 08:49:58 51°17.33 2°33.861 214.8 13 214 23.9
2009-04-09 08:50:03 51°17.315 2°33.845 213.1 13 215 24.1
2009-04-09 08:50:08 51°17.301 2°33.828 213.9 13 217 23.9
2009-04-09 08:50:14 51°17.283 2°33.808 214.2 13 215 23.4
2009-04-09 08:50:18 51°17.271 2°33.794 214.6 13 217 23.2
2009-04-09 08:50:23 51°17.257 2°33.776 215.6 13 217 22.7
2009-04-09 08:50:27 51°17.245 2°33.762 215.7 13.1 217 22.6
2009-04-09 08:50:34 51°17.226 2°33.738 216.1 13.1 219 22.6
2009-04-09 08:50:38 51°17.214 2°33.723 217.4 13.1 220 22.4
2009-04-09 08:50:43 51°17.2 2°33.705 218.1 13.1 219 22.2
2009-04-09 08:50:47 51°17.189 2°33.689 218.8 13.1 220 22.2
2009-04-09 08:50:54 51°17.169 2°33.664 218.6 13.1 218 22.3
2009-04-09 08:50:58 51°17.158 2°33.649 218.1 13.1 220 22.6
2009-04-09 08:51:03 51°17.144 2°33.631 218.2 13.1 219 23
2009-04-09 08:51:08 51°17.13 2°33.612 218.3 13.1 221 22.8
2009-04-09 08:51:13 51°17.116 2°33.593 218.7 13.1 220 23
2009-04-09 08:51:18 51°17.103 2°33.574 220 13.2 222 22.9
2009-04-09 08:51:23 51°17.089 2°33.554 222.2 13.2 224 23.3
2009-04-09 08:51:28 51°17.076 2°33.534 222.8 13.2 224 23
2009-04-09 08:51:34 51°17.061 2°33.508 224 13.2 227 23.2
2009-04-09 08:51:38 51°17.051 2°33.491 225.1 13.2 226 23.1
2009-04-09 08:51:42 51°17.041 2°33.474 225.8 13.2 227 23.3
2009-04-09 08:51:48 51°17.026 2°33.449 226.3 13.1 227 23.5
2009-04-09 08:51:53 51°17.014 2°33.427 226.9 13.2 227 23.3
2009-04-09 08:51:58 51°17.002 2°33.406 227.5 13.1 229 23.7
2009-04-09 08:52:02 51°16.992 2°33.389 228 13.2 228 23.9
2009-04-09 08:52:08 51°16.977 2°33.363 228 13.2 229 23.8
2009-04-09 08:52:13 51°16.965 2°33.341 228.3 13.1 229 23.9
2009-04-09 08:52:18 51°16.953 2°33.319 228.4 13.1 228 24
2009-04-09 08:52:23 51°16.941 2°33.298 227.5 13.1 227 23.9
2009-04-09 08:52:28 51°16.929 2°33.277 226.8 13.1 228 24
2009-04-09 08:52:34 51°16.914 2°33.251 227.1 13.1 228 24.2
2009-04-09 08:52:38 51°16.904 2°33.234 227.3 13.1 228 24.1
2009-04-09 08:52:42 51°16.895 2°33.216 228.2 13.1 230 24.3
2009-04-09 08:52:48 51°16.88 2°33.19 228.5 13.1 227 24.3
2009-04-09 08:52:54 51°16.866 2°33.164 228.6 13.1 231 24.4
2009-04-09 08:52:58 51°16.857 2°33.146 229.1 13.1 228 24.5
2009-04-09 08:53:02 51°16.847 2°33.129 228.9 13.1 229 24.6
2009-04-09 08:53:08 51°16.833 2°33.102 228.8 13.1 229 24.7
2009-04-09 08:53:13 51°16.821 2°33.081 228.8 13.1 229 24.9
2009-04-09 08:53:18 51°16.809 2°33.059 228.7 13.1 230 24.8
2009-04-09 08:53:22 51°16.8 2°33.041 228.9 13.1 229 24.8
2009-04-09 08:53:28 51°16.785 2°33.015 228.9 13.1 229 24.7
2009-04-09 08:53:33 51°16.774 2°32.993 228.8 13.1 229 24.7
2009-04-09 08:53:38 51°16.762 2°32.971 228.9 13.1 229 24.7
2009-04-09 08:53:43 51°16.75 2°32.949 229.1 13.1 230 24.7
2009-04-09 08:53:48 51°16.738 2°32.928 229.2 13.1 229 24.5
2009-04-09 08:53:54 51°16.724 2°32.901 228.9 13.1 229 24.7
2009-04-09 08:53:58 51°16.714 2°32.884 228.9 13.1 229 24.8
2009-04-09 08:54:02 51°16.705 2°32.866 229.3 13.1 230 24.8
2009-04-09 08:54:08 51°16.691 2°32.84 229.6 13.1 230 24.7
2009-04-09 08:54:13 51°16.679 2°32.818 229 13.1 229 24.8
2009-04-09 08:54:18 51°16.667 2°32.796 228.5 13 229 24.9
2009-04-09 08:54:22 51°16.657 2°32.779 227.7 13 227 25
2009-04-09 08:54:28 51°16.643 2°32.753 227.4 13.1 229 25.2
2009-04-09 08:54:33 51°16.631 2°32.731 228.1 13.1 229 25.2
2009-04-09 08:54:38 51°16.619 2°32.71 228.4 13.1 229 25.3
2009-04-09 08:54:43 51°16.607 2°32.688 228.4 13.1 229 25.5
2009-04-09 08:54:48 51°16.595 2°32.666 228.7 13 229 25.7
2009-04-09 08:54:54 51°16.581 2°32.639 228.9 13.1 230 25.8
2009-04-09 08:54:58 51°16.572 2°32.622 229.1 13.1 230 25.9
2009-04-09 08:55:02 51°16.563 2°32.604 229.4 13.1 230 26.1
2009-04-09 08:55:08 51°16.549 2°32.577 229.5 13.1 230 26.2
2009-04-09 08:55:13 51°16.537 2°32.555 229.7 13.1 230 26.1
2009-04-09 08:55:18 51°16.525 2°32.533 229.7 13.1 230 26.2
2009-04-09 08:55:22 51°16.516 2°32.515 229.4 13.1 230 26.2
2009-04-09 08:55:28 51°16.502 2°32.489 229.5 13 230 26.2
2009-04-09 08:55:33 51°16.49 2°32.467 229.5 13 230 26.2
2009-04-09 08:55:38 51°16.479 2°32.444 229.6 13.1 230 26.2
2009-04-09 08:55:43 51°16.467 2°32.423 229.5 13.1 230 26.1
2009-04-09 08:55:48 51°16.455 2°32.4 229.3 13.1 230 26.1
2009-04-09 08:55:54 51°16.441 2°32.374 229.4 13 230 26.2
2009-04-09 08:55:58 51°16.432 2°32.356 229.6 13 230 26.3
2009-04-09 08:56:02 51°16.422 2°32.339 229.6 13.1 230 26.3
2009-04-09 08:56:08 51°16.409 2°32.312 229.5 13 230 26.4
2009-04-09 08:56:13 51°16.397 2°32.29 229.4 13 230 26.4
2009-04-09 08:56:18 51°16.385 2°32.268 229.4 13.1 229 26.4
2009-04-09 08:56:22 51°16.376 2°32.25 229.2 13.1 229 26.4
2009-04-09 08:56:28 51°16.361 2°32.224 229 13.1 229 26.4
2009-04-09 08:56:33 51°16.349 2°32.202 228.6 13.1 229 26.4
2009-04-09 08:56:38 51°16.337 2°32.181 228.7 13.1 229 26.4
2009-04-09 08:56:43 51°16.325 2°32.158 229.5 13.1 230 26.4
2009-04-09 08:56:48 51°16.313 2°32.136 229.4 13.1 228 26.3